createdAt,value
2023-09-10T00:00:10.811Z,5.00
2023-09-10T00:02:37.448Z,8.60
2023-09-10T00:05:04.148Z,9.07
2023-09-10T00:07:30.618Z,8.30
2023-09-10T00:09:57.122Z,8.68
2023-09-10T00:12:23.543Z,8.95
2023-09-10T00:14:49.955Z,8.20
2023-09-10T00:17:16.515Z,6.03
2023-09-10T00:19:43.023Z,6.00
2023-09-10T00:22:09.435Z,5.75
2023-09-10T00:24:35.949Z,7.40
2023-09-10T00:27:02.594Z,4.13
2023-09-10T00:29:29.025Z,8.20
2023-09-10T00:31:55.571Z,8.73
2023-09-10T00:34:22.075Z,8.05
2023-09-10T00:36:52.277Z,7.63
2023-09-10T00:39:20.967Z,8.15
2023-09-10T00:41:47.726Z,7.03
2023-09-10T00:44:14.247Z,2.88
2023-09-10T00:46:40.823Z,2.38
2023-09-10T00:49:07.279Z,5.55
2023-09-10T00:51:33.914Z,3.83
2023-09-10T00:54:00.733Z,6.03
2023-09-10T00:56:27.179Z,6.95
2023-09-10T00:58:54.624Z,7.28
2023-09-10T01:01:21.982Z,5.55
2023-09-10T01:03:48.394Z,5.60
2023-09-10T01:06:14.886Z,6.60
2023-09-10T01:08:41.696Z,6.57
2023-09-10T01:11:32.740Z,5.68
2023-09-10T01:14:11.696Z,6.70
2023-09-10T01:16:51.767Z,8.50
2023-09-10T01:19:52.493Z,8.67
2023-09-10T01:22:46.768Z,4.75
2023-09-10T01:25:14.706Z,6.15
2023-09-10T01:27:41.333Z,10.05
2023-09-10T01:30:10.553Z,7.75
2023-09-10T01:32:44.587Z,6.57
2023-09-10T01:35:34.712Z,8.88
2023-09-10T01:38:10.977Z,8.60
2023-09-10T01:41:03.196Z,9.35
2023-09-10T01:43:32.305Z,8.13
2023-09-10T01:45:58.826Z,5.83
2023-09-10T01:48:27.704Z,7.45
2023-09-10T01:50:55.305Z,6.03
2023-09-10T01:53:21.702Z,7.35
2023-09-10T01:55:48.307Z,6.18
2023-09-10T01:58:14.722Z,6.17
2023-09-10T02:00:41.186Z,7.03
2023-09-10T02:03:08.104Z,7.05
2023-09-10T02:05:34.688Z,8.00
2023-09-10T02:08:01.081Z,8.68
2023-09-10T02:10:29.150Z,8.33
2023-09-10T02:12:55.611Z,8.68
2023-09-10T02:15:22.035Z,10.15
2023-09-10T02:17:48.543Z,10.57
2023-09-10T02:20:15.121Z,13.23
2023-09-10T02:22:41.746Z,13.37
2023-09-10T02:25:09.156Z,7.20
2023-09-10T02:27:36.431Z,11.25
2023-09-10T02:30:06.813Z,11.73
2023-09-10T02:32:33.712Z,14.35
2023-09-10T02:35:00.423Z,10.63
2023-09-10T02:37:26.863Z,9.52
2023-09-10T02:39:53.235Z,10.27
2023-09-10T02:42:19.626Z,13.57
2023-09-10T02:44:46.148Z,12.30
2023-09-10T02:47:12.561Z,11.80
2023-09-10T02:49:39.087Z,11.98
2023-09-10T02:52:05.618Z,12.90
2023-09-10T02:54:37.284Z,8.85
2023-09-10T02:57:03.891Z,11.90
2023-09-10T02:59:30.304Z,8.70
2023-09-10T03:01:56.913Z,10.55
2023-09-10T03:04:23.385Z,10.60
2023-09-10T03:06:51.069Z,9.75
2023-09-10T03:09:17.897Z,10.10
2023-09-10T03:11:47.503Z,11.03
2023-09-10T03:14:14.173Z,8.95
2023-09-10T03:16:40.726Z,10.05
2023-09-10T03:19:07.668Z,8.18
2023-09-10T03:21:37.436Z,9.52
2023-09-10T03:24:04.060Z,8.63
2023-09-10T03:26:30.457Z,8.90
2023-09-10T03:28:56.939Z,6.30
2023-09-10T03:31:23.573Z,3.03
2023-09-10T03:33:50.033Z,3.85
2023-09-10T03:36:16.456Z,7.03
2023-09-10T03:38:42.876Z,7.57
2023-09-10T03:41:09.323Z,6.88
2023-09-10T03:43:36.116Z,7.22
2023-09-10T03:46:02.568Z,8.65
2023-09-10T03:48:29.036Z,9.27
2023-09-10T03:50:55.484Z,9.10
2023-09-10T03:53:21.883Z,9.65
2023-09-10T03:55:48.344Z,10.68
2023-09-10T03:58:14.834Z,12.25
2023-09-10T04:00:41.394Z,9.60
2023-09-10T04:03:07.932Z,7.40
2023-09-10T04:05:34.463Z,6.00
2023-09-10T04:08:00.971Z,4.90
2023-09-10T04:10:28.315Z,5.28
2023-09-10T04:12:54.794Z,6.50
2023-09-10T04:15:21.180Z,6.40
2023-09-10T04:17:47.679Z,7.07
2023-09-10T04:20:14.650Z,6.38
2023-09-10T04:22:41.094Z,10.00
2023-09-10T04:25:07.898Z,7.23
2023-09-10T04:27:34.704Z,8.30
2023-09-10T04:30:01.121Z,7.80
2023-09-10T04:32:27.569Z,8.02
2023-09-10T04:34:54.044Z,9.02
2023-09-10T04:37:20.481Z,3.90
2023-09-10T04:39:47.100Z,5.00
2023-09-10T04:42:13.526Z,4.63
2023-09-10T04:44:39.876Z,4.85
2023-09-10T04:47:06.278Z,7.50
2023-09-10T04:49:32.649Z,4.60
2023-09-10T04:51:59.011Z,5.68
2023-09-10T04:54:25.407Z,5.93
2023-09-10T04:56:56.011Z,6.25
2023-09-10T04:59:23.752Z,6.93
2023-09-10T05:01:50.304Z,9.10
2023-09-10T05:04:16.972Z,11.98
2023-09-10T05:06:43.429Z,11.63
2023-09-10T05:09:09.926Z,7.63
2023-09-10T05:11:36.277Z,8.05
2023-09-10T05:14:03.400Z,10.37
2023-09-10T05:16:30.892Z,12.13
2023-09-10T05:18:57.444Z,12.15
2023-09-10T05:21:23.843Z,11.35
2023-09-10T05:23:50.341Z,11.98
2023-09-10T05:26:17.130Z,10.77
2023-09-10T05:28:46.604Z,8.88
2023-09-10T05:31:13.645Z,9.77
2023-09-10T05:36:07.000Z,8.65
2023-09-10T05:38:33.458Z,9.37
2023-09-10T05:41:04.511Z,9.57
2023-09-10T05:43:31.573Z,11.07
2023-09-10T05:45:58.986Z,10.57
2023-09-10T05:48:25.553Z,14.52
2023-09-10T05:50:59.056Z,13.60
2023-09-10T05:53:25.730Z,13.75
2023-09-10T05:55:52.229Z,13.50
2023-09-10T05:58:20.206Z,14.40
2023-09-10T06:00:46.885Z,13.30
2023-09-10T06:03:13.377Z,15.27
2023-09-10T06:05:39.884Z,12.45
2023-09-10T06:08:06.616Z,16.90
2023-09-10T06:10:33.001Z,17.00
2023-09-10T06:12:59.413Z,17.60
2023-09-10T06:15:25.791Z,15.97
2023-09-10T06:17:52.289Z,16.10
2023-09-10T06:20:18.733Z,15.27
2023-09-10T06:22:45.246Z,14.52
2023-09-10T06:25:11.616Z,15.27
2023-09-10T06:27:38.128Z,14.47
2023-09-10T06:30:05.172Z,13.73
2023-09-10T06:32:31.703Z,13.23
2023-09-10T06:34:58.209Z,13.43
2023-09-10T06:37:25.237Z,11.90
2023-09-10T06:39:51.646Z,13.23
2023-09-10T06:42:18.104Z,14.60
2023-09-10T06:44:44.742Z,14.25
2023-09-10T06:47:11.718Z,12.50
2023-09-10T06:49:40.154Z,11.60
2023-09-10T06:52:09.886Z,11.63
2023-09-10T06:54:36.290Z,12.57
2023-09-10T06:57:02.830Z,13.40
2023-09-10T06:59:29.482Z,12.70
2023-09-10T07:01:56.161Z,13.40
2023-09-10T07:04:24.289Z,12.60
2023-09-10T07:06:52.512Z,14.07
2023-09-10T07:09:23.533Z,12.52
2023-09-10T07:11:54.546Z,12.93
2023-09-10T07:14:22.177Z,12.77
2023-09-10T07:16:49.501Z,12.10
2023-09-10T07:19:16.308Z,12.45
2023-09-10T07:21:42.703Z,12.80
2023-09-10T07:24:10.568Z,13.02
2023-09-10T07:26:37.864Z,12.98
2023-09-10T07:29:08.215Z,13.97
2023-09-10T07:31:35.815Z,13.57
2023-09-10T07:34:03.126Z,13.93
2023-09-10T07:36:30.064Z,15.27
2023-09-10T07:38:56.428Z,15.75
2023-09-10T07:41:23.318Z,16.73
2023-09-10T07:43:49.845Z,16.10
2023-09-10T07:46:16.627Z,15.95
2023-09-10T07:48:43.108Z,17.98
2023-09-10T07:51:09.515Z,17.95
2023-09-10T07:53:35.944Z,20.10
2023-09-10T07:56:02.911Z,19.63
2023-09-10T07:58:29.452Z,19.85
2023-09-10T08:00:57.960Z,19.50
2023-09-10T08:03:25.029Z,21.65
2023-09-10T08:05:51.594Z,22.83
2023-09-10T08:08:18.107Z,22.77
2023-09-10T08:10:46.473Z,22.52
2023-09-10T08:13:13.628Z,24.02
2023-09-10T08:15:43.756Z,23.05
2023-09-10T08:18:12.646Z,22.50
2023-09-10T08:20:40.760Z,23.65
2023-09-10T08:23:08.164Z,25.15
2023-09-10T08:25:35.119Z,25.05
2023-09-10T08:28:01.580Z,24.58
2023-09-10T08:30:28.773Z,22.80
2023-09-10T08:32:55.408Z,23.88
2023-09-10T08:35:23.734Z,23.92
2023-09-10T08:37:50.436Z,24.58
2023-09-10T08:40:17.701Z,26.45
2023-09-10T08:42:59.124Z,25.30
2023-09-10T08:45:25.649Z,24.02
2023-09-10T08:47:55.782Z,24.27
2023-09-10T08:50:23.377Z,25.60
2023-09-10T08:52:50.386Z,25.35
2023-09-10T08:55:17.002Z,24.53
2023-09-10T08:57:46.622Z,24.02
2023-09-10T09:00:14.015Z,25.35
2023-09-10T09:02:42.272Z,24.15
2023-09-10T09:05:09.433Z,22.92
2023-09-10T09:07:44.139Z,24.50
2023-09-10T09:10:15.253Z,24.42
2023-09-10T09:12:43.001Z,23.75
2023-09-10T09:15:10.285Z,23.70
2023-09-10T09:17:39.822Z,22.75
2023-09-10T09:20:12.123Z,23.07
2023-09-10T09:22:44.243Z,23.02
2023-09-10T09:25:11.332Z,22.20
2023-09-10T09:27:38.842Z,21.85
2023-09-10T09:30:09.029Z,23.08
2023-09-10T09:32:40.280Z,20.90
2023-09-10T09:35:10.471Z,22.08
2023-09-10T09:37:37.583Z,19.80
2023-09-10T09:40:05.204Z,21.80
2023-09-10T09:42:31.680Z,21.27
2023-09-10T09:45:01.330Z,19.87
2023-09-10T09:47:27.963Z,20.85
2023-09-10T09:49:57.658Z,20.77
2023-09-10T09:52:24.167Z,20.20
2023-09-10T09:54:50.585Z,20.08
2023-09-10T09:57:17.907Z,20.60
2023-09-10T09:59:45.154Z,20.42
2023-09-10T10:02:16.303Z,19.42
2023-09-10T10:04:46.213Z,19.27
2023-09-10T10:07:23.229Z,17.90
2023-09-10T10:09:51.730Z,16.23
2023-09-10T10:12:18.457Z,17.73
2023-09-10T10:14:45.725Z,18.77
2023-09-10T10:17:12.688Z,16.48
2023-09-10T10:19:40.679Z,15.98
2023-09-10T10:22:08.235Z,16.70
2023-09-10T10:24:35.970Z,16.25
2023-09-10T10:27:02.815Z,14.93
2023-09-10T10:29:29.518Z,16.42
2023-09-10T10:32:03.181Z,15.23
2023-09-10T10:34:38.578Z,15.37
2023-09-10T10:37:10.999Z,15.30
2023-09-10T10:40:17.737Z,13.45
2023-09-10T10:43:08.884Z,14.40
2023-09-10T10:45:36.287Z,14.82
2023-09-10T10:48:10.142Z,14.10
2023-09-10T10:50:39.708Z,13.52
2023-09-10T10:53:18.607Z,12.30
2023-09-10T10:55:46.663Z,12.77
2023-09-10T10:58:13.730Z,12.40
2023-09-10T11:00:40.117Z,11.63
2023-09-10T11:03:14.833Z,12.20
2023-09-10T11:05:53.898Z,11.23
2023-09-10T11:08:30.952Z,11.45
2023-09-10T11:10:58.465Z,10.82
2023-09-10T11:13:26.085Z,11.50
2023-09-10T11:16:05.164Z,10.77
2023-09-10T11:18:37.738Z,11.13
2023-09-10T11:21:13.698Z,10.70
2023-09-10T11:24:02.351Z,10.73
2023-09-10T11:26:30.147Z,9.57
2023-09-10T11:29:01.163Z,8.52
2023-09-10T11:31:40.078Z,9.50
2023-09-10T11:34:15.957Z,8.18
2023-09-10T11:36:56.423Z,7.10
2023-09-10T11:39:23.573Z,6.70
2023-09-10T11:41:54.597Z,6.72
2023-09-10T11:44:21.254Z,7.25
2023-09-10T11:46:48.086Z,6.95
2023-09-10T11:49:15.616Z,6.68
2023-09-10T11:51:43.039Z,6.73
2023-09-10T11:54:09.903Z,6.68
2023-09-10T11:56:36.380Z,5.85
2023-09-10T11:59:03.592Z,6.22
2023-09-10T12:01:32.352Z,6.68
2023-09-10T12:03:58.731Z,6.80
2023-09-10T12:06:25.252Z,6.78
2023-09-10T12:08:51.615Z,6.63
2023-09-10T12:11:20.317Z,6.07
2023-09-10T12:13:47.019Z,6.63
2023-09-10T12:16:14.369Z,6.13
2023-09-10T12:18:41.868Z,5.95
2023-09-10T12:21:13.276Z,6.85
2023-09-10T12:23:40.059Z,5.97
2023-09-10T12:26:08.573Z,5.82
2023-09-10T12:28:35.108Z,6.60
2023-09-10T12:31:01.753Z,6.07
2023-09-10T12:33:29.156Z,6.38
2023-09-10T12:35:57.177Z,6.53
2023-09-10T12:38:23.719Z,6.22
2023-09-10T12:40:53.525Z,5.03
2023-09-10T12:43:20.868Z,5.75
2023-09-10T12:45:48.186Z,4.85
2023-09-10T12:48:18.930Z,4.88
2023-09-10T12:50:46.312Z,4.90
2023-09-10T12:53:13.114Z,5.07
2023-09-10T12:55:40.060Z,5.65
2023-09-10T12:58:08.802Z,5.70
2023-09-10T13:00:35.216Z,5.72
2023-09-10T13:03:01.637Z,5.82
2023-09-10T13:05:28.324Z,5.67
2023-09-10T13:07:54.841Z,5.07
2023-09-10T13:10:21.332Z,5.82
2023-09-10T13:12:47.793Z,5.70
2023-09-10T13:15:19.520Z,6.53
2023-09-10T13:17:46.077Z,6.50
2023-09-10T13:20:12.690Z,5.80
2023-09-10T13:22:39.239Z,6.20
2023-09-10T13:25:06.182Z,6.35
2023-09-10T13:27:32.603Z,5.68
2023-09-10T13:29:59.032Z,6.10
2023-09-10T13:32:25.550Z,6.07
2023-09-10T13:34:52.071Z,6.28
2023-09-10T13:37:18.585Z,5.82
2023-09-10T13:39:44.987Z,5.63
2023-09-10T13:42:12.597Z,5.80
2023-09-10T13:44:38.988Z,6.40
2023-09-10T13:47:05.439Z,5.72
2023-09-10T13:49:31.922Z,5.57
2023-09-10T13:51:58.391Z,4.97
2023-09-10T13:54:24.746Z,5.50
2023-09-10T13:56:51.247Z,5.60
2023-09-10T13:59:17.769Z,5.90
2023-09-10T14:01:45.390Z,5.68
2023-09-10T14:04:12.833Z,5.72
2023-09-10T14:06:39.806Z,5.00
2023-09-10T14:09:06.505Z,5.30
2023-09-10T14:11:32.992Z,4.65
2023-09-10T14:13:59.507Z,4.35
2023-09-10T14:16:26.326Z,4.45
2023-09-10T14:18:52.805Z,4.70
2023-09-10T14:21:21.076Z,5.20
2023-09-10T14:23:47.510Z,4.72
2023-09-10T14:26:13.975Z,5.32
2023-09-10T14:28:40.706Z,4.90
2023-09-10T14:31:07.485Z,5.60
2023-09-10T14:33:33.932Z,5.00
2023-09-10T14:36:00.802Z,4.80
2023-09-10T14:38:27.551Z,5.97
2023-09-10T14:40:54.075Z,5.30
2023-09-10T14:43:20.545Z,4.73
2023-09-10T14:45:47.117Z,4.65
2023-09-10T14:48:13.994Z,4.93
2023-09-10T14:50:40.511Z,4.88
2023-09-10T14:53:06.978Z,4.75
2023-09-10T14:55:33.461Z,4.73
2023-09-10T14:57:59.876Z,4.53
2023-09-10T15:00:26.360Z,4.63
2023-09-10T15:02:52.829Z,4.80
2023-09-10T15:05:19.380Z,4.30
2023-09-10T15:07:45.909Z,4.20
2023-09-10T15:10:13.059Z,4.90
2023-09-10T15:12:39.443Z,4.70
2023-09-10T15:15:06.410Z,5.55
2023-09-10T15:17:32.960Z,4.82
2023-09-10T15:19:59.428Z,4.43
2023-09-10T15:22:25.805Z,4.82
2023-09-10T15:24:52.488Z,4.57
2023-09-10T15:27:18.983Z,4.70
2023-09-10T15:29:45.370Z,5.53
2023-09-10T15:32:11.865Z,5.13
2023-09-10T15:34:38.336Z,4.40
2023-09-10T15:37:05.115Z,3.97
2023-09-10T15:39:32.687Z,5.13
2023-09-10T15:41:59.144Z,4.85
2023-09-10T15:44:26.391Z,5.07
2023-09-10T15:46:52.973Z,4.82
2023-09-10T15:49:19.750Z,5.00
2023-09-10T15:51:46.413Z,5.03
2023-09-10T15:54:14.144Z,4.47
2023-09-10T15:56:40.637Z,5.00
2023-09-10T15:59:07.072Z,5.18
2023-09-10T16:01:33.553Z,5.00
2023-09-10T16:04:00.104Z,4.75
2023-09-10T16:06:26.647Z,5.35
2023-09-10T16:08:53.055Z,4.80
2023-09-10T16:11:19.674Z,4.85
2023-09-10T16:13:46.104Z,5.00
2023-09-10T16:16:12.527Z,5.40
2023-09-10T16:18:39.230Z,5.20
2023-09-10T16:21:05.689Z,4.67
2023-09-10T16:23:34.519Z,5.03
2023-09-10T16:26:01.860Z,5.00
2023-09-10T16:28:28.350Z,5.43
2023-09-10T16:30:54.862Z,5.32
2023-09-10T16:33:21.260Z,4.90
2023-09-10T16:35:47.663Z,5.45
2023-09-10T16:38:14.340Z,4.68
2023-09-10T16:40:40.936Z,5.03
2023-09-10T16:43:07.343Z,5.07
2023-09-10T16:45:33.797Z,4.80
2023-09-10T16:48:01.562Z,5.10
2023-09-10T16:50:28.100Z,4.82
2023-09-10T16:52:54.590Z,4.97
2023-09-10T16:55:20.963Z,5.25
2023-09-10T16:57:47.369Z,5.67
2023-09-10T17:00:14.198Z,5.50
2023-09-10T17:02:40.795Z,5.13
2023-09-10T17:05:07.916Z,5.60
2023-09-10T17:07:36.235Z,5.75
2023-09-10T17:10:03.390Z,5.80
2023-09-10T17:12:29.773Z,5.07
2023-09-10T17:14:56.570Z,6.10
2023-09-10T17:17:23.126Z,5.50
2023-09-10T17:19:49.501Z,5.30
2023-09-10T17:22:15.976Z,5.40
2023-09-10T17:24:42.385Z,5.90
2023-09-10T17:27:08.759Z,6.25
2023-09-10T17:29:35.248Z,5.53
2023-09-10T17:32:02.050Z,6.30
2023-09-10T17:34:28.552Z,5.53
2023-09-10T17:39:35.254Z,5.78
2023-09-10T17:42:01.675Z,5.97
2023-09-10T17:44:28.150Z,5.70
2023-09-10T17:46:58.184Z,6.17
2023-09-10T17:49:24.619Z,6.32
2023-09-10T17:51:51.677Z,7.40
2023-09-10T17:54:18.033Z,6.28
2023-09-10T17:56:44.605Z,6.43
2023-09-10T17:59:11.119Z,6.37
2023-09-10T18:01:37.591Z,6.70
2023-09-10T18:04:04.391Z,7.00
2023-09-10T18:06:30.894Z,6.20
2023-09-10T18:08:57.516Z,6.50
2023-09-10T18:11:25.314Z,6.63
2023-09-10T18:13:51.800Z,6.60
2023-09-10T18:16:18.161Z,6.88
2023-09-10T18:18:44.650Z,7.00
2023-09-10T18:21:11.212Z,7.10
2023-09-10T18:23:38.016Z,7.10
2023-09-10T18:26:05.904Z,7.50
2023-09-10T18:28:32.360Z,7.40
2023-09-10T18:31:06.693Z,8.23
2023-09-10T18:33:37.918Z,8.38
2023-09-10T18:36:05.547Z,7.13
2023-09-10T18:38:41.620Z,7.63
2023-09-10T18:41:08.092Z,8.20
2023-09-10T18:43:35.000Z,7.80
2023-09-10T18:46:01.471Z,8.30
2023-09-10T18:48:27.919Z,8.20
2023-09-10T18:50:54.501Z,8.45
2023-09-10T18:53:21.576Z,9.05
2023-09-10T18:55:48.150Z,6.50
2023-09-10T18:58:14.521Z,6.47
2023-09-10T19:00:41.086Z,7.87
2023-09-10T19:03:07.658Z,8.30
2023-09-10T19:05:34.192Z,8.75
2023-09-10T19:08:00.675Z,8.68
2023-09-10T19:10:27.089Z,7.15
2023-09-10T19:12:53.523Z,8.67
2023-09-10T19:15:19.956Z,8.40
2023-09-10T19:17:46.470Z,9.45
2023-09-10T19:20:13.009Z,9.48
2023-09-10T19:22:39.554Z,9.52
2023-09-10T19:25:06.399Z,7.47
2023-09-10T19:27:32.866Z,7.53
2023-09-10T19:29:59.478Z,6.57
2023-09-10T19:32:26.067Z,6.60
2023-09-10T19:34:52.559Z,5.50
2023-09-10T19:37:22.374Z,6.77
2023-09-10T19:39:48.787Z,5.53
2023-09-10T19:42:15.200Z,6.50
2023-09-10T19:44:42.822Z,5.57
2023-09-10T19:47:09.400Z,4.82
2023-09-10T19:49:35.966Z,4.83
2023-09-10T19:52:02.364Z,5.45
2023-09-10T19:54:28.797Z,6.07
2023-09-10T19:56:55.220Z,6.05
2023-09-10T19:59:21.737Z,7.85
2023-09-10T20:01:48.244Z,8.93
2023-09-10T20:04:14.919Z,9.07
2023-09-10T20:06:43.184Z,10.60
2023-09-10T20:09:10.169Z,11.13
2023-09-10T20:11:37.697Z,12.32
2023-09-10T20:14:04.527Z,10.70
2023-09-10T20:16:31.006Z,8.55
2023-09-10T20:18:57.543Z,7.97
2023-09-10T20:21:24.353Z,8.82
2023-09-10T20:23:50.973Z,6.90
2023-09-10T20:26:17.472Z,7.83
2023-09-10T20:28:44.074Z,7.40
2023-09-10T20:31:10.624Z,8.27
2023-09-10T20:33:37.082Z,8.63
2023-09-10T20:36:08.908Z,7.82
2023-09-10T20:38:35.804Z,7.57
2023-09-10T20:41:17.046Z,5.50
2023-09-10T20:43:44.168Z,2.22
2023-09-10T20:46:12.350Z,2.90
2023-09-10T20:48:39.033Z,1.50
2023-09-10T20:51:07.819Z,2.30
2023-09-10T20:53:35.777Z,4.85
2023-09-10T20:56:02.405Z,6.10
2023-09-10T20:58:28.930Z,5.47
2023-09-10T21:00:55.438Z,7.38
2023-09-10T21:03:28.991Z,8.90
2023-09-10T21:06:08.160Z,8.63
2023-09-10T21:08:34.693Z,6.35
2023-09-10T21:11:07.314Z,6.00
2023-09-10T21:13:33.755Z,9.68
2023-09-10T21:16:00.262Z,12.30
2023-09-10T21:18:28.454Z,9.85
2023-09-10T21:20:55.113Z,7.47
2023-09-10T21:23:22.689Z,9.88
2023-09-10T21:25:49.250Z,4.07
2023-09-10T21:28:15.648Z,1.90
2023-09-10T21:30:42.076Z,2.28
2023-09-10T21:33:08.761Z,1.33
2023-09-10T21:35:35.272Z,3.30
2023-09-10T21:38:01.711Z,5.80
2023-09-10T21:40:28.162Z,4.57
2023-09-10T21:42:54.636Z,2.75
2023-09-10T21:45:21.033Z,2.92
2023-09-10T21:47:47.472Z,4.18
2023-09-10T21:50:14.048Z,5.40
2023-09-10T21:52:41.047Z,4.20
2023-09-10T21:55:07.946Z,5.10
2023-09-10T21:57:34.422Z,7.72
2023-09-10T22:00:00.923Z,6.43
2023-09-10T22:02:27.438Z,5.18
2023-09-10T22:04:53.922Z,6.37
2023-09-10T22:07:20.384Z,6.25
2023-09-10T22:09:46.938Z,4.93
2023-09-10T22:12:13.448Z,5.50
2023-09-10T22:14:39.953Z,6.68
2023-09-10T22:17:06.440Z,7.60
2023-09-10T22:19:32.890Z,8.10
2023-09-10T22:21:59.317Z,11.15
2023-09-10T22:24:25.680Z,5.50
2023-09-10T22:26:52.219Z,6.07
2023-09-10T22:29:18.726Z,6.27
2023-09-10T22:31:45.206Z,5.28
2023-09-10T22:34:11.627Z,8.57
2023-09-10T22:36:39.143Z,7.32
2023-09-10T22:39:06.748Z,6.40
2023-09-10T22:41:33.273Z,9.13
2023-09-10T22:43:59.788Z,12.50
2023-09-10T22:46:28.116Z,13.48
2023-09-10T22:48:54.490Z,15.68
2023-09-10T22:51:20.898Z,13.40
2023-09-10T22:53:51.540Z,9.40
2023-09-10T22:56:18.909Z,6.35
2023-09-10T22:58:47.646Z,6.30
2023-09-10T23:01:15.800Z,7.35
2023-09-10T23:03:42.444Z,6.43
2023-09-10T23:06:09.169Z,8.33
2023-09-10T23:08:38.975Z,8.65
2023-09-10T23:11:06.532Z,9.77
2023-09-10T23:13:33.172Z,11.02
2023-09-10T23:15:59.931Z,13.13
2023-09-10T23:18:26.582Z,16.83
2023-09-10T23:20:53.069Z,13.23
2023-09-10T23:23:19.553Z,7.90
2023-09-10T23:25:45.968Z,10.90
2023-09-10T23:28:14.126Z,10.75
2023-09-10T23:30:40.524Z,8.60
2023-09-10T23:33:07.263Z,8.57
2023-09-10T23:35:35.749Z,14.00
2023-09-10T23:38:02.285Z,14.82
2023-09-10T23:40:28.653Z,13.38
2023-09-10T23:42:55.022Z,17.00
2023-09-10T23:45:21.393Z,12.80
2023-09-10T23:47:47.894Z,9.88
2023-09-10T23:50:14.357Z,9.52
2023-09-10T23:52:40.734Z,11.48
2023-09-10T23:55:08.487Z,9.43
2023-09-10T23:57:35.054Z,12.52
